Time;durP1;ratioP1;P1;durP2;ratioP2;P2;SDS_P1;SDS_P2;PMS_P1;PMS_P2;Temp;Humidity;BMP_temperature;BMP_pressure;BME280_temperature;BME280_humidity;BME280_pressure;Samples;Min_cycle;Max_cycle;Signal;HPM_P1;HPM_P2
2022/08/02 00:00:06;;;;;;;5.25;1.50;;;;;;;51.39;11.99;100902.78;5068080;28;20115;-61
2022/08/02 00:02:32;;;;;;;4.50;1.63;;;;;;;52.71;11.05;100903.31;5069551;28;20074;-60
2022/08/02 00:04:59;;;;;;;3.30;1.42;;;;;;;51.51;11.84;100895.47;5071732;28;20089;-60
2022/08/02 00:07:26;;;;;;;5.70;1.52;;;;;;;48.54;14.63;100919.13;5069361;28;20033;-62
2022/08/02 00:09:52;;;;;;;4.32;1.42;;;;;;;47.00;15.80;100908.19;5069066;28;20060;-60
2022/08/02 00:12:19;;;;;;;5.57;1.33;;;;;;;45.80;17.10;100911.88;5068636;28;20068;-61
2022/08/02 00:14:45;;;;;;;4.22;1.40;;;;;;;45.90;16.92;100905.44;5068409;28;20035;-60
2022/08/02 00:17:12;;;;;;;5.97;1.75;;;;;;;44.60;18.77;100901.34;5065734;28;20035;-59
2022/08/02 00:19:40;;;;;;;3.58;1.40;;;;;;;43.75;19.75;100901.09;5069189;28;20035;-61
2022/08/02 00:22:07;;;;;;;10.98;1.58;;;;;;;42.70;20.97;100903.19;5068503;28;20028;-61
2022/08/02 00:24:33;;;;;;;6.22;1.63;;;;;;;41.60;22.75;100901.31;5068586;28;20493;-62
2022/08/02 00:27:02;;;;;;;6.78;1.40;;;;;;;40.99;23.42;100903.13;5069329;28;20036;-60
2022/08/02 00:29:29;;;;;;;10.18;1.60;;;;;;;41.67;22.69;100903.09;5070255;28;20021;-60
2022/08/02 00:31:57;;;;;;;6.63;1.45;;;;;;;42.04;22.58;100897.34;5066952;28;20101;-62
2022/08/02 00:34:24;;;;;;;10.32;1.58;;;;;;;40.75;23.88;100897.13;5083612;28;20020;-60
2022/08/02 00:36:51;;;;;;;4.80;1.20;;;;;;;41.16;23.69;100897.13;5081005;28;20818;-60
2022/08/02 00:39:17;;;;;;;10.23;1.45;;;;;;;41.16;23.30;100902.84;5082062;28;20085;-60
2022/08/02 00:41:50;;;;;;;4.55;1.80;;;;;;;41.57;22.82;100899.41;5084525;28;20028;-60
2022/08/02 00:44:18;;;;;;;7.78;1.60;;;;;;;41.56;23.06;100897.81;5081836;28;20409;-61
2022/08/02 00:46:45;;;;;;;10.18;1.55;;;;;;;41.51;22.88;100889.91;5085564;28;20475;-59
2022/08/02 00:49:13;;;;;;;10.68;1.42;;;;;;;41.30;23.73;100897.34;5091307;28;20505;-61
2022/08/02 00:51:40;;;;;;;20.75;2.20;;;;;;;39.38;26.64;100904.72;5090325;28;20043;-60
2022/08/02 00:54:08;;;;;;;10.98;2.08;;;;;;;38.65;27.84;100903.88;5083980;28;20039;-60
2022/08/02 00:56:34;;;;;;;22.58;2.42;;;;;;;38.59;27.63;100903.59;5085058;28;20023;-61
2022/08/02 00:59:02;;;;;;;14.85;1.88;;;;;;;38.29;28.75;100907.00;5086139;28;20028;-60
2022/08/02 01:01:38;;;;;;;9.68;2.08;;;;;;;37.98;29.26;100904.63;5078168;28;20024;-60
2022/08/02 01:04:09;;;;;;;7.57;1.85;;;;;;;38.07;28.82;100901.94;5089351;28;20032;-59
2022/08/02 01:06:38;;;;;;;10.77;2.10;;;;;;;37.91;28.76;100904.84;5083194;28;20474;-60
2022/08/02 01:09:06;;;;;;;11.57;2.40;;;;;;;37.90;28.91;100905.28;5074672;28;20117;-58
2022/08/02 01:11:34;;;;;;;8.38;1.92;;;;;;;37.54;29.14;100888.44;5083111;28;20067;-60
2022/08/02 01:14:13;;;;;;;7.28;1.80;;;;;;;37.54;29.20;100894.91;5084554;28;20047;-60
2022/08/02 01:16:51;;;;;;;4.03;1.70;;;;;;;37.55;29.22;100893.66;5073639;28;20041;-60
2022/08/02 01:19:36;;;;;;;5.72;1.60;;;;;;;37.56;29.26;100891.63;5075393;28;20028;-59
2022/08/02 01:22:37;;;;;;;8.95;1.77;;;;;;;37.52;29.53;100886.00;5077924;28;20032;-60
2022/08/02 01:25:28;;;;;;;9.70;2.05;;;;;;;37.64;29.54;100885.28;5076557;28;20036;-60
2022/08/02 01:28:27;;;;;;;11.98;1.95;;;;;;;37.59;29.49;100887.88;5073004;28;20033;-60
2022/08/02 01:31:03;;;;;;;9.18;1.65;;;;;;;37.70;29.41;100883.47;5079825;28;20102;-60
2022/08/02 01:33:42;;;;;;;6.97;1.60;;;;;;;37.69;29.16;100878.25;5073869;28;20112;-60
2022/08/02 01:36:12;;;;;;;6.10;1.42;;;;;;;37.60;29.45;100887.44;5074677;28;20090;-59
2022/08/02 01:38:42;;;;;;;9.25;1.42;;;;;;;37.57;29.27;100888.34;5075827;28;20060;-59
2022/08/02 01:41:14;;;;;;;3.42;1.27;;;;;;;37.47;29.10;100878.06;5076390;28;20024;-59
2022/08/02 01:43:43;;;;;;;11.18;2.03;;;;;;;37.40;29.39;100881.91;5085648;28;20564;-61
2022/08/02 01:46:13;;;;;;;6.20;1.45;;;;;;;37.44;29.19;100885.44;5082212;28;20387;-61
2022/08/02 01:48:41;;;;;;;7.80;1.45;;;;;;;37.40;28.86;100875.44;5085440;28;20038;-60
2022/08/02 01:51:14;;;;;;;9.32;1.58;;;;;;;37.28;29.08;100876.16;5082000;28;20095;-61
2022/08/02 01:53:44;;;;;;;6.38;1.40;;;;;;;37.18;29.32;100880.84;5081955;28;20496;-62
2022/08/02 01:56:13;;;;;;;5.90;1.20;;;;;;;37.12;29.48;100882.59;5086187;28;20513;-61
2022/08/02 01:58:41;;;;;;;8.30;1.45;;;;;;;37.03;29.96;100876.78;5076704;28;20033;-61
2022/08/02 02:01:11;;;;;;;8.85;1.60;;;;;;;36.97;29.68;100881.34;5074566;28;20486;-60
2022/08/02 02:03:40;;;;;;;10.60;1.33;;;;;;;36.91;29.97;100886.78;5074760;28;20483;-60
2022/08/02 02:06:09;;;;;;;11.77;1.65;;;;;;;36.95;30.06;100893.13;5085134;28;20051;-59
2022/08/02 02:08:42;;;;;;;7.22;1.23;;;;;;;36.95;30.10;100887.47;5081395;28;20364;-59
2022/08/02 02:11:10;;;;;;;7.00;1.17;;;;;;;36.96;29.89;100893.94;5085493;28;20529;-61
2022/08/02 02:13:41;;;;;;;6.03;1.42;;;;;;;36.94;29.83;100897.22;5082375;28;20045;-59
2022/08/02 02:16:10;;;;;;;7.22;1.42;;;;;;;36.88;30.24;100893.31;5080459;28;20482;-59
2022/08/02 02:18:42;;;;;;;7.28;1.17;;;;;;;36.86;30.11;100901.47;5075034;28;20055;-60
2022/08/02 02:21:11;;;;;;;4.55;1.00;;;;;;;36.79;29.91;100905.25;5072134;28;20376;-59
2022/08/02 02:23:37;;;;;;;4.60;1.15;;;;;;;36.75;30.36;100907.34;5076363;28;20482;-60
2022/08/02 02:26:06;;;;;;;6.93;1.40;;;;;;;36.73;29.85;100903.38;5076837;28;20036;-59
2022/08/02 02:28:36;;;;;;;4.88;1.25;;;;;;;36.72;30.33;100902.56;5078946;28;20016;-59
2022/08/02 02:31:17;;;;;;;5.00;1.23;;;;;;;36.64;29.84;100912.50;5080840;28;20474;-60
2022/08/02 02:34:00;;;;;;;4.43;1.17;;;;;;;36.58;30.64;100915.03;5076070;28;20082;-60
2022/08/02 02:36:28;;;;;;;7.55;1.40;;;;;;;36.57;30.16;100907.75;5074119;28;20059;-60
2022/08/02 02:38:59;;;;;;;10.80;1.92;;;;;;;36.47;30.42;100900.31;5069581;28;20110;-59
2022/08/02 02:41:28;;;;;;;11.20;2.00;;;;;;;36.47;30.56;100914.47;5069013;28;20024;-59
2022/08/02 02:43:57;;;;;;;6.50;1.52;;;;;;;36.40;30.53;100899.66;5074120;28;20033;-60
2022/08/02 02:46:28;;;;;;;15.85;2.00;;;;;;;36.39;30.90;100909.41;5076403;28;20024;-59
2022/08/02 02:48:56;;;;;;;10.45;2.00;;;;;;;36.35;31.46;100911.53;5083449;28;20117;-60
2022/08/02 02:51:24;;;;;;;14.40;2.10;;;;;;;36.31;31.19;100912.41;5082092;28;20020;-60
2022/08/02 02:53:52;;;;;;;10.35;2.00;;;;;;;36.23;31.27;100910.13;5083586;28;20048;-59
2022/08/02 02:56:20;;;;;;;22.05;2.90;;;;;;;36.20;31.87;100914.63;5083432;28;20107;-59
2022/08/02 02:58:47;;;;;;;13.40;2.30;;;;;;;36.10;32.39;100914.84;5082445;28;20044;-60
2022/08/02 03:01:27;;;;;;;17.23;2.00;;;;;;;36.06;32.10;100914.91;5084988;28;20012;-61
2022/08/02 03:04:06;;;;;;;15.63;2.47;;;;;;;36.13;32.00;100923.28;5084434;28;20039;-60
2022/08/02 03:06:35;;;;;;;13.27;1.90;;;;;;;36.07;32.46;100916.50;5082538;28;20020;-59
2022/08/02 03:09:02;;;;;;;11.52;2.30;;;;;;;36.01;32.61;100932.41;5082271;28;20028;-61
2022/08/02 03:11:30;;;;;;;14.35;1.80;;;;;;;35.98;32.07;100933.28;5083581;28;20127;-60
2022/08/02 03:14:04;;;;;;;7.03;1.55;;;;;;;35.97;31.34;100938.13;5079051;28;20784;-60
2022/08/02 03:16:31;;;;;;;9.82;2.05;;;;;;;35.95;30.26;100937.78;5072235;28;20067;-60
2022/08/02 03:19:01;;;;;;;9.52;1.73;;;;;;;35.91;30.21;100945.53;5069243;28;20051;-60
2022/08/02 03:21:28;;;;;;;7.15;1.63;;;;;;;35.81;30.38;100945.72;5071158;28;20037;-60
2022/08/02 03:23:55;;;;;;;14.77;2.20;;;;;;;35.69;30.98;100942.25;5072063;28;20107;-59
2022/08/02 03:26:22;;;;;;;14.90;2.35;;;;;;;35.63;30.38;100940.38;5080455;28;20048;-60
2022/08/02 03:28:48;;;;;;;9.07;2.10;;;;;;;35.68;29.92;100949.16;5072084;28;20016;-59
2022/08/02 03:31:15;;;;;;;12.10;2.38;;;;;;;35.59;29.98;100951.75;5071980;28;20036;-60
2022/08/02 03:33:42;;;;;;;14.48;2.30;;;;;;;35.55;30.28;100951.03;5073096;28;20495;-61
2022/08/02 03:36:15;;;;;;;10.32;2.67;;;;;;;35.61;29.90;100954.94;5071623;28;20025;-60
2022/08/02 03:38:44;;;;;;;12.65;2.40;;;;;;;35.54;29.86;100957.09;5071916;28;20049;-59
2022/08/02 03:41:13;;;;;;;13.30;2.75;;;;;;;35.43;30.83;100952.44;5075332;28;20099;-59
2022/08/02 03:43:42;;;;;;;14.15;2.90;;;;;;;35.34;30.65;100965.47;5079010;28;20429;-60
2022/08/02 03:46:11;;;;;;;12.10;2.60;;;;;;;35.32;30.80;100960.25;5076492;28;20048;-59
2022/08/02 03:48:39;;;;;;;8.77;2.50;;;;;;;35.21;32.00;100967.34;5080595;28;20115;-59
2022/08/02 03:51:07;;;;;;;12.98;2.78;;;;;;;35.03;32.21;100961.97;5089781;28;20020;-60
2022/08/02 03:53:34;;;;;;;9.98;2.08;;;;;;;34.93;33.55;100962.91;5090210;28;20063;-60
2022/08/02 03:56:01;;;;;;;16.10;2.50;;;;;;;34.80;32.93;100974.75;5091234;28;20024;-60
2022/08/02 03:58:28;;;;;;;16.45;2.92;;;;;;;34.61;33.24;100980.28;5092473;28;20054;-61
2022/08/02 04:00:57;;;;;;;10.98;2.88;;;;;;;34.51;33.72;100990.50;5090615;28;20036;-59
2022/08/02 04:03:24;;;;;;;16.70;3.22;;;;;;;34.48;33.70;100991.34;5082636;28;20024;-60
2022/08/02 04:05:51;;;;;;;29.08;3.42;;;;;;;34.54;34.46;100995.28;5082797;28;20020;-60
2022/08/02 04:08:19;;;;;;;14.10;3.17;;;;;;;34.58;33.93;100989.59;5083722;28;20115;-61
2022/08/02 04:13:34;;;;;;;13.60;3.40;;;;;;;34.80;33.50;100993.72;5083757;28;20036;-60
2022/08/02 04:16:15;;;;;;;18.15;3.22;;;;;;;34.66;33.41;100999.59;5086410;28;20043;-61
2022/08/02 04:18:53;;;;;;;13.95;3.20;;;;;;;34.49;34.88;100999.38;5085524;28;20032;-60
2022/08/02 04:21:23;;;;;;;10.13;2.63;;;;;;;34.53;34.40;101002.16;5085225;28;20020;-60
2022/08/02 04:23:50;;;;;;;19.10;3.42;;;;;;;34.52;35.05;100997.75;5087383;28;20032;-59
2022/08/02 04:26:18;;;;;;;17.40;3.00;;;;;;;34.68;34.62;100994.31;5085205;28;20085;-62
2022/08/02 04:28:47;;;;;;;12.60;2.88;;;;;;;34.66;35.03;100999.59;5083742;28;20086;-60
2022/08/02 04:31:16;;;;;;;11.35;2.25;;;;;;;34.78;35.03;100994.16;5086070;28;20115;-61
2022/08/02 04:33:43;;;;;;;15.45;3.00;;;;;;;34.64;35.53;100999.19;5086843;28;20023;-59
2022/08/02 04:36:13;;;;;;;11.82;2.50;;;;;;;34.50;35.24;101005.84;5087029;28;20038;-62
2022/08/02 04:38:41;;;;;;;14.20;2.60;;;;;;;34.38;36.01;100998.72;5081039;28;20031;-59
2022/08/02 04:41:08;;;;;;;11.85;1.95;;;;;;;34.78;34.83;101004.63;5085461;28;20036;-60
2022/08/02 04:43:35;;;;;;;6.55;2.00;;;;;;;34.69;35.11;101001.56;5085109;28;20140;-58
2022/08/02 04:46:02;;;;;;;17.73;3.08;;;;;;;34.56;35.18;101003.34;5087341;28;20043;-61
2022/08/02 04:48:29;;;;;;;16.23;3.85;;;;;;;34.74;34.71;101004.69;5080693;28;20073;-60
2022/08/02 04:50:56;;;;;;;15.30;4.18;;;;;;;34.82;33.96;101016.69;5083582;28;20059;-59
2022/08/02 04:53:24;;;;;;;28.83;3.83;;;;;;;34.73;34.39;101019.25;5078292;28;20020;-59
2022/08/02 04:55:50;;;;;;;13.20;3.17;;;;;;;34.68;33.95;101016.91;5088734;28;20398;-62
2022/08/02 04:58:17;;;;;;;22.30;3.70;;;;;;;34.69;33.60;101018.50;5091427;28;20017;-58
2022/08/02 05:00:44;;;;;;;20.92;3.58;;;;;;;34.67;33.90;101021.75;5091338;28;20024;-60
2022/08/02 05:03:10;;;;;;;23.63;3.33;;;;;;;34.57;34.24;101024.69;5076009;28;20020;-60
2022/08/02 05:05:37;;;;;;;21.17;3.13;;;;;;;34.59;33.72;101028.69;5082474;28;20044;-61
2022/08/02 05:08:04;;;;;;;101.78;8.07;;;;;;;34.74;34.05;101021.63;5075042;28;20029;-63
2022/08/02 05:10:31;;;;;;;17.83;3.30;;;;;;;34.74;34.17;101024.47;5074509;28;20040;-64
2022/08/02 05:12:57;;;;;;;13.90;3.70;;;;;;;34.69;34.09;101018.50;5074599;28;20100;-59
2022/08/02 05:15:24;;;;;;;50.92;5.57;;;;;;;34.57;34.69;101028.31;5072964;28;20187;-61
2022/08/02 05:17:51;;;;;;;14.52;3.38;;;;;;;34.60;34.12;101021.03;5087821;28;20156;-59
2022/08/02 05:20:18;;;;;;;11.75;3.30;;;;;;;34.40;34.35;101024.47;5087686;28;20024;-60
2022/08/02 05:22:45;;;;;;;7.95;2.28;;;;;;;34.46;34.34;101027.63;5084145;28;20012;-62
2022/08/02 05:25:12;;;;;;;10.20;2.55;;;;;;;34.45;34.23;101026.84;5083837;28;20040;-59
2022/08/02 05:27:39;;;;;;;18.35;3.05;;;;;;;34.38;34.20;101038.22;5085790;28;20028;-61
2022/08/02 05:30:07;;;;;;;10.77;3.15;;;;;;;34.44;33.66;101030.88;5080192;28;20087;-61
2022/08/02 05:32:41;;;;;;;13.63;2.97;;;;;;;34.60;32.88;101030.28;5066965;28;20036;-59
2022/08/02 05:35:08;;;;;;;11.00;3.80;;;;;;;34.65;31.15;101035.50;5066771;28;20130;-58
2022/08/02 05:37:35;;;;;;;17.23;3.47;;;;;;;34.55;31.21;101030.75;5077303;28;20466;-60
2022/08/02 05:40:01;;;;;;;15.82;3.22;;;;;;;34.72;30.02;101040.22;5078586;28;20027;-62
2022/08/02 05:42:31;;;;;;;8.10;2.92;;;;;;;34.57;29.43;101033.97;5077029;28;20479;-61
2022/08/02 05:44:59;;;;;;;15.75;2.80;;;;;;;34.56;28.77;101034.38;5077701;28;20097;-59
2022/08/02 05:47:25;;;;;;;13.32;2.80;;;;;;;34.47;28.56;101030.06;5080768;28;20405;-61
2022/08/02 05:49:52;;;;;;;10.20;3.08;;;;;;;34.33;28.43;101029.38;5079393;28;20513;-60
2022/08/02 05:52:23;;;;;;;18.00;3.67;;;;;;;34.47;27.88;101035.72;5084899;28;20020;-61
2022/08/02 05:55:12;;;;;;;18.38;4.75;;;;;;;34.41;27.98;101031.72;5080473;28;20042;-61
2022/08/02 05:57:57;;;;;;;14.52;3.40;;;;;;;34.28;27.84;101036.28;5084808;28;20095;-61
2022/08/02 06:00:29;;;;;;;9.20;2.53;;;;;;;34.29;27.96;101029.41;5081737;28;20036;-61
2022/08/02 06:03:06;;;;;;;13.48;2.70;;;;;;;34.37;26.94;101030.19;5064653;28;20501;-59
2022/08/02 06:05:40;;;;;;;9.27;2.67;;;;;;;34.25;27.22;101031.47;5071831;28;20106;-59
2022/08/02 06:08:09;;;;;;;9.25;2.97;;;;;;;34.41;26.87;101031.72;5084309;28;20028;-60
2022/08/02 06:10:37;;;;;;;16.23;3.30;;;;;;;34.36;27.16;101023.72;5083375;28;20040;-60
2022/08/02 06:13:12;;;;;;;12.23;3.38;;;;;;;34.24;27.46;101027.06;5085054;28;20032;-60
2022/08/02 06:15:40;;;;;;;13.48;3.40;;;;;;;34.11;27.44;101037.25;5085434;28;20036;-60
2022/08/02 06:18:07;;;;;;;12.88;3.05;;;;;;;34.18;27.35;101040.81;5085499;28;20046;-59
2022/08/02 06:20:35;;;;;;;15.10;3.28;;;;;;;34.13;27.22;101032.03;5082474;28;20443;-60
2022/08/02 06:23:04;;;;;;;16.88;3.63;;;;;;;34.10;27.39;101032.84;5084016;28;20028;-59
2022/08/02 06:25:33;;;;;;;10.73;3.33;;;;;;;34.05;27.35;101034.09;5080796;28;20111;-62
2022/08/02 06:28:02;;;;;;;14.07;3.03;;;;;;;34.16;27.17;101037.63;5084579;28;20390;-66
2022/08/02 06:30:29;;;;;;;13.18;3.58;;;;;;;34.11;27.50;101040.09;5082404;28;20050;-59
2022/08/02 06:32:56;;;;;;;13.65;3.25;;;;;;;34.13;27.21;101038.47;5081881;28;20145;-61
2022/08/02 06:35:48;;;;;;;14.00;3.30;;;;;;;34.11;27.27;101034.44;5077356;28;20394;-60
2022/08/02 06:38:21;;;;;;;11.98;3.47;;;;;;;34.17;27.31;101035.59;5076312;28;20040;-61
2022/08/02 06:41:07;;;;;;;13.45;3.58;;;;;;;34.21;27.30;101039.19;5075747;28;20398;-61
2022/08/02 06:43:43;;;;;;;16.02;3.20;;;;;;;34.23;27.11;101042.38;5077175;28;20115;-59
2022/08/02 06:46:10;;;;;;;11.25;2.50;;;;;;;34.15;27.21;101041.66;5076211;28;20105;-61
2022/08/02 06:48:37;;;;;;;15.68;2.78;;;;;;;34.00;27.60;101045.03;5077626;28;20112;-61
2022/08/02 06:51:04;;;;;;;9.60;2.50;;;;;;;34.06;27.38;101043.38;5075197;28;20036;-60
2022/08/02 06:53:31;;;;;;;9.80;2.55;;;;;;;33.96;27.41;101039.44;5077199;28;20031;-60
2022/08/02 06:55:58;;;;;;;10.25;2.92;;;;;;;34.03;27.74;101041.38;5078822;28;20055;-60
2022/08/02 06:58:25;;;;;;;12.38;2.95;;;;;;;33.90;28.08;101047.53;5074932;28;20016;-61
2022/08/02 07:00:51;;;;;;;13.38;3.15;;;;;;;33.90;28.18;101047.53;5077966;28;20035;-60
2022/08/02 07:03:18;;;;;;;11.85;2.83;;;;;;;33.82;28.53;101048.81;5080836;28;20154;-60
2022/08/02 07:05:47;;;;;;;13.23;3.25;;;;;;;33.76;28.77;101036.38;5084802;28;20035;-59
2022/08/02 07:08:14;;;;;;;29.80;4.07;;;;;;;33.67;28.96;101047.31;5082855;28;20024;-60
2022/08/02 07:10:41;;;;;;;15.68;3.03;;;;;;;33.73;28.86;101040.00;5075739;28;20117;-61
2022/08/02 07:13:09;;;;;;;11.25;2.50;;;;;;;33.76;28.64;101042.03;5073245;28;20048;-60
2022/08/02 07:15:37;;;;;;;11.63;2.70;;;;;;;33.64;28.85;101039.69;5076230;28;20123;-61
2022/08/02 07:18:05;;;;;;;11.88;2.85;;;;;;;33.58;28.73;101047.00;5085336;28;20028;-59
2022/08/02 07:20:32;;;;;;;12.95;2.65;;;;;;;33.59;28.41;101042.97;5095362;28;20028;-60
2022/08/02 07:22:58;;;;;;;14.07;2.92;;;;;;;33.56;28.55;101046.59;5084579;28;20036;-59
2022/08/02 07:25:25;;;;;;;12.93;2.85;;;;;;;33.56;28.52;101043.78;5076923;28;20454;-59
2022/08/02 07:27:52;;;;;;;17.30;3.42;;;;;;;33.34;29.18;101051.59;5077943;28;20034;-59
2022/08/02 07:30:18;;;;;;;14.70;2.80;;;;;;;33.25;29.06;101046.41;5077603;28;20036;-59
2022/08/02 07:32:45;;;;;;;14.43;2.92;;;;;;;33.18;29.37;101042.81;5077679;28;20046;-58
2022/08/02 07:35:12;;;;;;;14.45;3.10;;;;;;;33.28;29.12;101041.94;5081817;28;20117;-58
2022/08/02 07:37:41;;;;;;;20.10;3.28;;;;;;;33.27;29.11;101032.69;5055477;28;20028;-60
2022/08/02 07:40:10;;;;;;;18.40;2.92;;;;;;;33.26;28.89;101038.75;5055454;28;20487;-59
2022/08/02 07:42:36;;;;;;;14.93;3.13;;;;;;;33.21;29.18;101039.97;5053964;28;20037;-59
2022/08/02 07:45:04;;;;;;;16.25;3.03;;;;;;;33.12;29.38;101025.56;5053957;28;20055;-59
2022/08/02 07:47:30;;;;;;;17.38;2.92;;;;;;;33.18;29.15;101031.53;5055231;28;20087;-59
2022/08/02 07:49:57;;;;;;;16.02;2.90;;;;;;;33.09;28.86;101034.81;5055121;28;20037;-60
2022/08/02 07:52:24;;;;;;;11.65;2.85;;;;;;;33.06;29.17;101038.47;5054373;28;20035;-57
2022/08/02 07:54:51;;;;;;;14.23;2.75;;;;;;;32.96;29.05;101040.13;5054704;28;20029;-59
2022/08/02 07:57:19;;;;;;;19.13;2.80;;;;;;;33.11;29.40;101040.84;5055005;28;20076;-59
2022/08/02 07:59:47;;;;;;;11.32;2.25;;;;;;;33.05;29.20;101043.31;5054624;28;20086;-59
2022/08/02 08:02:14;;;;;;;16.65;2.45;;;;;;;32.99;29.25;101046.94;5055127;28;20053;-58
2022/08/02 08:04:40;;;;;;;13.90;2.60;;;;;;;33.18;28.80;101046.44;5055035;28;20068;-59
2022/08/02 08:07:09;;;;;;;14.88;3.00;;;;;;;33.11;29.43;101051.31;5055292;28;20044;-59
2022/08/02 08:09:40;;;;;;;14.55;2.92;;;;;;;33.04;28.98;101052.16;5070692;28;20067;-58
2022/08/02 08:12:08;;;;;;;19.85;3.30;;;;;;;32.96;29.82;101050.59;5055095;28;20044;-60
2022/08/02 08:14:36;;;;;;;20.83;3.33;;;;;;;32.93;29.56;101040.16;5055308;28;20080;-61
2022/08/02 08:17:04;;;;;;;15.40;2.53;;;;;;;32.95;29.62;101055.41;5053800;28;20052;-60
2022/08/02 08:19:30;;;;;;;16.42;3.00;;;;;;;32.84;30.10;101051.03;5055280;28;20029;-59
2022/08/02 08:22:00;;;;;;;11.43;2.80;;;;;;;32.66;30.61;101046.25;5054742;28;20035;-59
2022/08/02 08:24:28;;;;;;;17.08;3.20;;;;;;;32.54;30.36;101051.56;5054592;28;20041;-59
2022/08/02 08:26:55;;;;;;;16.80;3.30;;;;;;;32.68;30.45;101045.88;5054770;28;20039;-59
2022/08/02 08:29:23;;;;;;;18.25;3.30;;;;;;;32.53;30.38;101044.31;5055133;28;20151;-59
2022/08/02 08:31:49;;;;;;;16.33;2.83;;;;;;;32.57;30.82;101045.09;5054960;28;20660;-59
2022/08/02 08:34:16;;;;;;;27.33;3.60;;;;;;;32.46;30.66;101034.66;5054737;28;20029;-59
2022/08/02 08:36:43;;;;;;;25.50;3.10;;;;;;;32.65;30.16;101036.22;5055096;28;20039;-59
2022/08/02 08:39:09;;;;;;;22.40;3.35;;;;;;;32.67;30.59;101038.63;5054885;28;20480;-59
2022/08/02 08:41:36;;;;;;;25.75;3.25;;;;;;;32.58;30.52;101041.88;5054715;28;20037;-60
2022/08/02 08:44:03;;;;;;;21.48;2.70;;;;;;;32.70;30.81;101044.25;5054522;28;20045;-60
2022/08/02 08:46:33;;;;;;;25.60;3.25;;;;;;;32.63;30.50;101038.63;5053290;28;20032;-59
2022/08/02 08:49:06;;;;;;;19.50;2.55;;;;;;;32.53;31.08;101039.50;5054574;28;20124;-59
2022/08/02 08:51:40;;;;;;;16.17;2.92;;;;;;;32.60;30.53;101033.81;5054552;28;20037;-60
2022/08/02 08:54:11;;;;;;;26.75;3.35;;;;;;;32.56;31.05;101044.31;5054371;28;20033;-60
2022/08/02 08:56:39;;;;;;;21.65;3.28;;;;;;;32.40;30.83;101032.69;5054272;28;20044;-59
2022/08/02 08:59:06;;;;;;;17.73;2.92;;;;;;;32.39;31.33;101028.28;5054471;28;20487;-59
2022/08/02 09:01:33;;;;;;;25.60;3.28;;;;;;;32.41;30.60;101045.56;5054253;28;20438;-59
2022/08/02 09:04:00;;;;;;;21.45;3.15;;;;;;;32.25;31.27;101034.72;5054192;28;20556;-59
2022/08/02 09:06:27;;;;;;;20.80;3.15;;;;;;;32.03;31.66;101031.16;5054089;28;20025;-60
2022/08/02 09:08:54;;;;;;;24.35;3.17;;;;;;;31.91;32.08;101030.75;5054058;28;20033;-60
2022/08/02 09:11:25;;;;;;;22.88;3.00;;;;;;;31.80;32.31;101025.16;5053901;28;20037;-59
2022/08/02 09:13:54;;;;;;;23.13;3.30;;;;;;;31.85;31.65;101028.34;5054082;28;20044;-59
2022/08/02 09:16:46;;;;;;;30.40;3.50;;;;;;;31.94;31.80;101036.38;5054268;28;20028;-58
2022/08/02 09:19:22;;;;;;;27.30;3.58;;;;;;;31.86;32.13;101038.38;5052236;28;20048;-60
2022/08/02 09:21:50;;;;;;;19.98;3.47;;;;;;;31.81;32.06;101029.56;5053766;28;20032;-58
2022/08/02 09:24:22;;;;;;;28.13;3.42;;;;;;;31.71;32.52;101045.19;5053608;28;20119;-60
2022/08/02 09:26:50;;;;;;;26.05;3.00;;;;;;;31.63;32.31;101039.97;5053533;28;20041;-58
2022/08/02 09:29:18;;;;;;;18.23;3.30;;;;;;;31.50;33.74;101043.19;5053523;28;20376;-59
2022/08/02 09:31:45;;;;;;;29.55;3.40;;;;;;;31.37;33.43;101041.94;5053867;28;20035;-59
2022/08/02 09:34:11;;;;;;;16.67;3.17;;;;;;;31.29;34.02;101051.59;5052400;28;20060;-58
2022/08/02 09:36:43;;;;;;;21.15;3.35;;;;;;;31.17;33.76;101049.09;5052601;28;20118;-57
2022/08/02 09:39:13;;;;;;;16.88;2.92;;;;;;;31.11;34.37;101047.91;5053561;28;20140;-59
2022/08/02 09:41:42;;;;;;;23.40;3.10;;;;;;;31.07;34.48;101049.91;5053455;28;20463;-59
2022/08/02 09:44:13;;;;;;;19.85;3.20;;;;;;;31.11;34.95;101045.91;5053376;28;20045;-57
2022/08/02 09:46:42;;;;;;;23.52;3.00;;;;;;;31.05;34.31;101050.28;5053427;28;20029;-59
2022/08/02 09:49:11;;;;;;;27.88;3.30;;;;;;;31.15;33.59;101054.31;5053433;28;20035;-58
2022/08/02 09:51:47;;;;;;;19.92;3.47;;;;;;;31.06;33.63;101051.06;5053388;28;20498;-58
2022/08/02 09:54:28;;;;;;;20.00;3.50;;;;;;;30.98;34.03;101059.50;5053290;28;20065;-58
2022/08/02 09:56:58;;;;;;;29.55;3.75;;;;;;;30.97;33.69;101063.50;5053479;28;20029;-59
2022/08/02 09:59:25;;;;;;;21.33;3.22;;;;;;;30.93;34.07;101062.69;5053250;28;20024;-59
2022/08/02 10:01:54;;;;;;;18.42;4.03;;;;;;;30.91;34.20;101076.31;5053151;28;20438;-58
2022/08/02 19:41:08;;;;;;;12.77;3.00;;;;;;;53.29;10.80;101009.91;5110485;27;20404;-60
2022/08/02 19:43:35;;;;;;;13.70;2.65;;;;;;;51.43;12.81;101036.53;5103371;28;20028;-61
2022/08/02 19:46:02;;;;;;;10.27;2.40;;;;;;;50.68;14.03;101041.97;5108042;28;20028;-60
2022/08/02 19:48:30;;;;;;;11.85;2.42;;;;;;;50.60;13.36;101043.88;5110405;28;20054;-61
2022/08/02 19:50:59;;;;;;;10.95;2.35;;;;;;;51.28;12.94;101039.84;5093361;28;20144;-61
2022/08/02 19:53:31;;;;;;;9.55;2.30;;;;;;;54.46;10.01;101040.72;5105087;28;20492;-60
2022/08/02 19:55:58;;;;;;;12.52;2.30;;;;;;;53.97;10.30;101042.06;5098907;28;20438;-60
2022/08/02 19:58:25;;;;;;;8.20;1.98;;;;;;;53.96;10.76;101036.81;5095953;28;20032;-61
2022/08/02 20:00:53;;;;;;;16.08;2.40;;;;;;;52.65;11.86;101027.47;5106436;28;20470;-61
2022/08/02 20:03:23;;;;;;;6.95;2.53;;;;;;;53.51;11.34;101022.44;5093625;28;20032;-61
2022/08/02 20:05:50;;;;;;;8.93;2.33;;;;;;;53.83;11.02;101026.00;5110115;28;20042;-61
2022/08/02 20:08:17;;;;;;;9.13;1.95;;;;;;;54.22;10.08;101024.31;5098039;28;20036;-61
2022/08/02 20:10:44;;;;;;;11.50;2.35;;;;;;;56.06;9.19;101015.56;5103802;28;20085;-62
2022/08/02 20:13:11;;;;;;;4.32;1.88;;;;;;;54.76;10.38;101011.09;5093051;28;20040;-60
2022/08/02 20:15:41;;;;;;;8.88;2.10;;;;;;;58.56;7.13;101006.75;5109221;28;20044;-59
2022/08/02 20:18:08;;;;;;;14.63;2.30;;;;;;;57.18;9.30;101006.66;5107894;28;20157;-59
2022/08/02 20:20:37;;;;;;;14.48;2.42;;;;;;;58.04;7.70;101003.63;5095525;28;20031;-59
2022/08/02 20:23:20;;;;;;;7.05;2.33;;;;;;;57.47;8.48;100991.78;5106370;28;20035;-59
2022/08/02 20:25:49;;;;;;;12.32;2.30;;;;;;;58.53;7.94;100996.22;5096936;28;20043;-59
2022/08/02 20:28:18;;;;;;;7.45;2.10;;;;;;;55.74;9.19;100990.53;5097454;28;20025;-59
2022/08/02 20:30:46;;;;;;;6.05;2.05;;;;;;;50.30;13.35;100989.66;5104958;28;20062;-58
2022/08/02 20:33:14;;;;;;;6.80;1.80;;;;;;;47.05;15.78;101000.34;5091599;28;20036;-59
2022/08/02 20:35:41;;;;;;;6.47;1.95;;;;;;;48.03;15.30;100996.91;5102662;28;20031;-59
2022/08/02 20:38:07;;;;;;;6.93;1.83;;;;;;;52.20;11.50;100975.94;5099379;28;20081;-59
2022/08/02 20:40:37;;;;;;;5.75;2.05;;;;;;;50.37;13.24;100973.84;5094879;28;20067;-59
2022/08/02 20:43:03;;;;;;;8.32;2.03;;;;;;;54.93;9.47;100966.94;5105294;28;20044;-58
2022/08/02 20:45:35;;;;;;;8.20;1.60;;;;;;;59.57;7.15;100967.00;5109775;28;20023;-59
2022/08/02 20:48:02;;;;;;;29.30;3.80;;;;;;;61.04;6.42;100974.38;5109200;28;20482;-57
2022/08/02 20:53:15;;;;;;;9.85;2.50;;;;;;;54.00;9.76;100973.28;5092009;28;20115;-59
2022/08/02 20:55:46;;;;;;;10.85;2.08;;;;;;;53.00;10.99;100964.56;5082036;28;20028;-59
2022/08/02 20:58:14;;;;;;;6.03;1.88;;;;;;;52.71;11.31;100960.59;5116918;27;20486;-59
2022/08/02 21:00:41;;;;;;;7.57;2.35;;;;;;;55.50;9.68;100947.28;5090253;28;20546;-59
2022/08/02 21:03:08;;;;;;;6.38;2.15;;;;;;;54.41;9.12;100936.81;5078564;28;20120;-58
2022/08/02 21:05:35;;;;;;;8.98;2.47;;;;;;;54.87;9.20;100935.84;5089386;28;20085;-59
2022/08/02 21:08:05;;;;;;;8.85;2.33;;;;;;;56.45;9.26;100935.44;5084526;28;20115;-57
2022/08/02 21:10:32;;;;;;;12.57;2.47;;;;;;;55.05;9.58;100930.31;5081459;28;20045;-59